OH85V EFJY-EFJY

Flight info

Callsign OH85V
Flight time N/A
Altitude 30006000
Route HOLDING NORTH
Aircraft PTS1/L-S/C

Departure

Time 2026-05-04 14:55
Airport Jyväskylä Airport (EFJY)

Arrival

Time N/A
Airport Jyväskylä Airport (EFJY)
Time Latitude Longitude Altitude Speed Heading
2026-05-04 14:21 62.40321 25.67768 440 ft 0 kts 227°
2026-05-04 14:39 62.40320 25.67767 440 ft 0 kts 227°
2026-05-04 14:40 62.40320 25.67766 440 ft 0 kts 229°
2026-05-04 14:42 62.40281 25.67847 439 ft 6 kts 227°
2026-05-04 14:42 62.40219 25.67753 438 ft 15 kts 165°
2026-05-04 14:42 62.40122 25.67934 433 ft 20 kts 140°
2026-05-04 14:43 62.40021 25.68152 433 ft 20 kts 138°
2026-05-04 14:43 62.39929 25.68369 431 ft 19 kts 133°
2026-05-04 14:43 62.39836 25.68566 425 ft 19 kts 137°
2026-05-04 14:43 62.39746 25.68764 426 ft 19 kts 132°
2026-05-04 14:44 62.39654 25.68961 423 ft 18 kts 135°
2026-05-04 14:44 62.39623 25.69044 422 ft 0 kts 131°
2026-05-04 14:45 62.39623 25.69045 422 ft 1 kts 132°
2026-05-04 14:45 62.39559 25.69127 421 ft 16 kts 188°
2026-05-04 14:45 62.39482 25.68990 421 ft 13 kts 230°
2026-05-04 14:45 62.39472 25.68888 421 ft 0 kts 303°
2026-05-04 14:46 62.39514 25.68790 421 ft 30 kts 302°
2026-05-04 14:46 62.39784 25.68198 584 ft 65 kts 312°
2026-05-04 14:46 62.40153 25.67438 776 ft 88 kts 315°
2026-05-04 14:47 62.40693 25.66677 950 ft 105 kts 338°
2026-05-04 14:47 62.41401 25.66276 1017 ft 105 kts 347°
2026-05-04 14:47 62.42147 25.66114 966 ft 109 kts 356°
2026-05-04 14:47 62.42904 25.66510 881 ft 119 kts 36°
2026-05-04 14:48 62.43568 25.67674 832 ft 127 kts 45°
2026-05-04 14:48 62.44114 25.69139 848 ft 124 kts 62°
2026-05-04 14:48 62.44472 25.70796 995 ft 121 kts 76°
2026-05-04 14:48 62.44912 25.72340 990 ft 124 kts 38°
2026-05-04 14:49 62.45560 25.73506 1011 ft 124 kts 42°
2026-05-04 14:49 62.46193 25.74853 932 ft 127 kts 40°
2026-05-04 14:49 62.46955 25.74914 959 ft 110 kts 322°
2026-05-04 14:49 62.47363 25.73585 975 ft 108 kts 296°
2026-05-04 14:50 62.47876 25.72363 934 ft 115 kts 323°
2026-05-04 14:50 62.48581 25.71631 1003 ft 108 kts 336°
2026-05-04 14:50 62.49290 25.71020 908 ft 110 kts 330°
2026-05-04 14:50 62.49930 25.70142 815 ft 108 kts 321°
2026-05-04 14:51 62.50547 25.69229 706 ft 108 kts 326°
2026-05-04 14:51 62.51282 25.68852 659 ft 109 kts 353°
2026-05-04 14:51 62.52014 25.68772 659 ft 103 kts 352°
2026-05-04 14:51 62.52730 25.68552 635 ft 107 kts 351°
2026-05-04 14:52 62.53461 25.68345 765 ft 104 kts 350°
2026-05-04 14:52 62.54158 25.68090 827 ft 104 kts 348°
2026-05-04 14:52 62.54898 25.67799 794 ft 108 kts 354°
2026-05-04 14:52 62.55629 25.67460 729 ft 104 kts 316°
2026-05-04 14:53 62.55493 25.66340 731 ft 87 kts 246°
2026-05-04 14:53 62.55567 25.65013 660 ft 100 kts 302°
2026-05-04 14:53 62.55945 25.63732 681 ft 100 kts 302°
2026-05-04 14:53 62.56460 25.62641 658 ft 106 kts 317°
2026-05-04 14:54 62.57133 25.61977 617 ft 113 kts 354°
2026-05-04 14:54 62.57910 25.62189 650 ft 113 kts 20°
2026-05-04 14:54 62.58673 25.62619 693 ft 111 kts 356°
2026-05-04 14:54 62.59389 25.62128 674 ft 112 kts 338°
2026-05-04 14:55 62.60108 25.61619 690 ft 110 kts 345°
2026-05-04 14:55 62.60866 25.61310 925 ft 111 kts 351°
2026-05-04 14:55 62.61660 25.61213 1131 ft 121 kts
2026-05-04 14:55 62.62537 25.61449 1435 ft 129 kts
2026-05-04 14:56 62.63428 25.61922 1705 ft 136 kts 19°
2026-05-04 14:56 62.64220 25.62625 2203 ft 114 kts 28°
2026-05-04 14:56 62.64937 25.63545 2411 ft 124 kts 30°
2026-05-04 14:56 62.65677 25.64501 2681 ft 121 kts 23°
2026-05-04 14:57 62.66443 25.65229 2882 ft 122 kts 20°
2026-05-04 14:57 62.67208 25.65866 3027 ft 117 kts
2026-05-04 14:57 62.67955 25.65344 3049 ft 116 kts 304°
2026-05-04 14:57 62.68111 25.63679 2930 ft 118 kts 265°
2026-05-04 14:58 62.68067 25.61944 2817 ft 115 kts 263°
2026-05-04 14:58 62.67982 25.60242 2933 ft 106 kts 260°
2026-05-04 14:58 62.67916 25.58872 3442 ft 91 kts 261°
2026-05-04 14:58 62.67874 25.57909 3544 ft 101 kts 262°
2026-05-04 14:59 62.67740 25.55743 3574 ft 107 kts 260°
2026-05-04 14:59 62.67641 25.54264 3601 ft 94 kts 257°
2026-05-04 14:59 62.67765 25.53936 2833 ft 70 kts 60°
2026-05-04 15:00 62.67961 25.54246 2756 ft 116 kts 15°
2026-05-04 15:00 62.68755 25.54289 2730 ft 123 kts 337°
2026-05-04 15:00 62.69548 25.53697 2683 ft 112 kts 338°
2026-05-04 15:01 62.70642 25.52585 2027 ft 81 kts 336°
2026-05-04 15:01 62.71184 25.52052 2549 ft 97 kts 326°
2026-05-04 15:01 62.72140 25.50901 3518 ft 91 kts 334°
2026-05-04 15:01 62.72875 25.50370 3737 ft 95 kts 331°
2026-05-04 15:02 62.73368 25.49604 3815 ft 75 kts 287°
2026-05-04 15:02 62.73688 25.48447 3744 ft 105 kts 305°
2026-05-04 15:02 62.74004 25.47105 3834 ft 97 kts 273°
2026-05-04 15:02 62.73839 25.45642 3718 ft 111 kts 252°
2026-05-04 15:03 62.73638 25.44217 3942 ft 90 kts 237°
2026-05-04 15:03 62.73360 25.43127 3905 ft 71 kts 229°
2026-05-04 15:03 62.73039 25.42253 3890 ft 84 kts 240°
2026-05-04 15:03 62.72755 25.41197 3667 ft 78 kts 246°
2026-05-04 15:04 62.72553 25.40073 3544 ft 94 kts 253°
2026-05-04 15:04 62.72088 25.39167 3646 ft 99 kts 188°
2026-05-04 15:04 62.71488 25.39780 3496 ft 94 kts 156°
2026-05-04 15:04 62.70960 25.39588 2954 ft 80 kts 223°
2026-05-04 15:05 62.70526 25.38881 2384 ft 84 kts 222°
2026-05-04 15:05 62.70146 25.37972 1803 ft 82 kts 236°
2026-05-04 15:05 62.69987 25.36885 1336 ft 76 kts 287°
2026-05-04 15:05 62.70415 25.36183 816 ft 77 kts 332°
2026-05-04 15:06 62.70675 25.35400 412 ft 48 kts 270°
2026-05-04 15:06 62.70684 25.35160 404 ft 0 kts 266°
2026-05-04 15:07 62.70693 25.35230 410 ft 30 kts 51°
2026-05-04 15:07 62.71001 25.35562 530 ft 63 kts 353°